Airport View

Enter AWOS ICAO identifier for current METAR.

ex. KFNL

KAFP 111930Z AUTO 10SM 08/M06 A3043 RMK AO2 T00831059

11 Dec 2019 19:32

Frequency: 119.325

Phone: 704-695-0623

Other Area AWOS: KRCZ - KCQW - KVUJ - KEQY

TAF KCLT 111736Z 1118/1224 01008KT P6SM FEW015 SCT080 SCT250 FM112300 03004KT P6SM FEW250 FM121500 06008KT P6SM FEW250